sensor_id;sensor_type;location;lat;lon;timestamp;temperature;humidity
16174;DHT22;14031;50.158;8.626;2023-08-12T00:01:16;21.80;99.90
16174;DHT22;14031;50.158;8.626;2023-08-12T00:03:46;21.80;99.90
16174;DHT22;14031;50.158;8.626;2023-08-12T00:06:13;21.80;99.90
16174;DHT22;14031;50.158;8.626;2023-08-12T00:08:40;21.80;99.90
16174;DHT22;14031;50.158;8.626;2023-08-12T00:11:06;21.80;99.90
16174;DHT22;14031;50.158;8.626;2023-08-12T00:13:33;21.70;99.90
16174;DHT22;14031;50.158;8.626;2023-08-12T00:16:00;21.70;99.90
16174;DHT22;14031;50.158;8.626;2023-08-12T00:18:28;21.70;99.90
16174;DHT22;14031;50.158;8.626;2023-08-12T00:20:55;21.70;99.90
16174;DHT22;14031;50.158;8.626;2023-08-12T00:23:23;21.70;99.90
16174;DHT22;14031;50.158;8.626;2023-08-12T00:25:49;21.60;99.90
16174;DHT22;14031;50.158;8.626;2023-08-12T00:28:16;21.60;99.90
16174;DHT22;14031;50.158;8.626;2023-08-12T00:30:43;21.60;99.90
16174;DHT22;14031;50.158;8.626;2023-08-12T00:33:10;21.60;99.90
16174;DHT22;14031;50.158;8.626;2023-08-12T00:35:38;21.60;99.90
16174;DHT22;14031;50.158;8.626;2023-08-12T00:38:05;21.60;99.90
16174;DHT22;14031;50.158;8.626;2023-08-12T00:40:31;21.60;99.90
16174;DHT22;14031;50.158;8.626;2023-08-12T00:42:58;21.60;99.90
16174;DHT22;14031;50.158;8.626;2023-08-12T00:45:25;21.70;99.90
16174;DHT22;14031;50.158;8.626;2023-08-12T00:47:52;21.60;99.90
16174;DHT22;14031;50.158;8.626;2023-08-12T00:50:20;21.60;99.90
16174;DHT22;14031;50.158;8.626;2023-08-12T00:52:48;21.60;99.90
16174;DHT22;14031;50.158;8.626;2023-08-12T00:55:16;21.60;99.90
16174;DHT22;14031;50.158;8.626;2023-08-12T00:57:43;21.60;99.90
16174;DHT22;14031;50.158;8.626;2023-08-12T01:00:11;21.60;99.90
16174;DHT22;14031;50.158;8.626;2023-08-12T01:02:38;21.50;99.90
16174;DHT22;14031;50.158;8.626;2023-08-12T01:05:05;21.50;99.90
16174;DHT22;14031;50.158;8.626;2023-08-12T01:07:32;21.50;99.90
16174;DHT22;14031;50.158;8.626;2023-08-12T01:10:01;21.50;99.90
16174;DHT22;14031;50.158;8.626;2023-08-12T01:12:31;21.60;99.90
16174;DHT22;14031;50.158;8.626;2023-08-12T01:15:03;21.50;99.90
16174;DHT22;14031;50.158;8.626;2023-08-12T01:17:34;21.50;99.90
16174;DHT22;14031;50.158;8.626;2023-08-12T01:20:03;21.50;99.90
16174;DHT22;14031;50.158;8.626;2023-08-12T01:22:34;21.50;99.90
16174;DHT22;14031;50.158;8.626;2023-08-12T01:25:07;21.50;99.90
16174;DHT22;14031;50.158;8.626;2023-08-12T01:27:35;21.50;99.90
16174;DHT22;14031;50.158;8.626;2023-08-12T01:30:03;21.40;99.90
16174;DHT22;14031;50.158;8.626;2023-08-12T01:32:41;21.60;99.90
16174;DHT22;14031;50.158;8.626;2023-08-12T01:35:16;21.60;99.90
16174;DHT22;14031;50.158;8.626;2023-08-12T01:37:45;21.50;99.90
16174;DHT22;14031;50.158;8.626;2023-08-12T01:40:14;21.50;99.90
16174;DHT22;14031;50.158;8.626;2023-08-12T01:42:41;21.50;99.90
16174;DHT22;14031;50.158;8.626;2023-08-12T01:45:09;21.50;99.90
16174;DHT22;14031;50.158;8.626;2023-08-12T01:47:36;21.50;99.90
16174;DHT22;14031;50.158;8.626;2023-08-12T01:50:03;21.50;99.90
16174;DHT22;14031;50.158;8.626;2023-08-12T01:52:31;21.50;99.90
16174;DHT22;14031;50.158;8.626;2023-08-12T01:54:58;21.50;99.90
16174;DHT22;14031;50.158;8.626;2023-08-12T01:57:26;21.50;99.90
16174;DHT22;14031;50.158;8.626;2023-08-12T01:59:53;21.60;99.90
16174;DHT22;14031;50.158;8.626;2023-08-12T02:02:20;21.60;99.90
16174;DHT22;14031;50.158;8.626;2023-08-12T02:04:47;21.60;99.90
16174;DHT22;14031;50.158;8.626;2023-08-12T02:07:13;21.60;99.90
16174;DHT22;14031;50.158;8.626;2023-08-12T02:09:40;21.50;99.90
16174;DHT22;14031;50.158;8.626;2023-08-12T02:12:07;21.50;99.90
16174;DHT22;14031;50.158;8.626;2023-08-12T02:14:35;21.50;99.90
16174;DHT22;14031;50.158;8.626;2023-08-12T02:17:02;21.50;99.90
16174;DHT22;14031;50.158;8.626;2023-08-12T02:19:31;21.50;99.90
16174;DHT22;14031;50.158;8.626;2023-08-12T02:21:58;21.50;99.90
16174;DHT22;14031;50.158;8.626;2023-08-12T02:24:25;21.50;99.90
16174;DHT22;14031;50.158;8.626;2023-08-12T02:26:51;21.50;99.90
16174;DHT22;14031;50.158;8.626;2023-08-12T02:29:18;21.50;99.90
16174;DHT22;14031;50.158;8.626;2023-08-12T02:31:46;21.50;99.90
16174;DHT22;14031;50.158;8.626;2023-08-12T02:34:13;21.40;99.90
16174;DHT22;14031;50.158;8.626;2023-08-12T02:36:40;21.50;99.90
16174;DHT22;14031;50.158;8.626;2023-08-12T02:39:07;21.50;99.90
16174;DHT22;14031;50.158;8.626;2023-08-12T02:41:34;21.50;99.90
16174;DHT22;14031;50.158;8.626;2023-08-12T02:44:00;21.50;99.90
16174;DHT22;14031;50.158;8.626;2023-08-12T02:46:27;21.40;99.90
16174;DHT22;14031;50.158;8.626;2023-08-12T02:48:56;21.40;99.90
16174;DHT22;14031;50.158;8.626;2023-08-12T02:51:22;21.30;99.90
16174;DHT22;14031;50.158;8.626;2023-08-12T02:53:49;21.40;99.90
16174;DHT22;14031;50.158;8.626;2023-08-12T02:56:16;21.40;99.90
16174;DHT22;14031;50.158;8.626;2023-08-12T02:58:43;21.40;99.90
16174;DHT22;14031;50.158;8.626;2023-08-12T03:01:09;21.40;99.90
16174;DHT22;14031;50.158;8.626;2023-08-12T03:03:36;21.40;99.90
16174;DHT22;14031;50.158;8.626;2023-08-12T03:06:05;21.40;99.90
16174;DHT22;14031;50.158;8.626;2023-08-12T03:08:31;21.40;99.90
16174;DHT22;14031;50.158;8.626;2023-08-12T03:10:59;21.40;99.90
16174;DHT22;14031;50.158;8.626;2023-08-12T03:13:26;21.50;99.90
16174;DHT22;14031;50.158;8.626;2023-08-12T03:15:53;21.40;99.90
16174;DHT22;14031;50.158;8.626;2023-08-12T03:18:20;21.40;99.90
16174;DHT22;14031;50.158;8.626;2023-08-12T03:20:46;21.20;99.90
16174;DHT22;14031;50.158;8.626;2023-08-12T03:23:15;21.30;99.90
16174;DHT22;14031;50.158;8.626;2023-08-12T03:25:42;21.20;99.90
16174;DHT22;14031;50.158;8.626;2023-08-12T03:28:08;21.30;99.90
16174;DHT22;14031;50.158;8.626;2023-08-12T03:30:35;21.30;99.90
16174;DHT22;14031;50.158;8.626;2023-08-12T03:33:02;21.30;99.90
16174;DHT22;14031;50.158;8.626;2023-08-12T03:35:29;21.30;99.90
16174;DHT22;14031;50.158;8.626;2023-08-12T03:37:56;21.20;99.90
16174;DHT22;14031;50.158;8.626;2023-08-12T03:40:24;21.20;99.90
16174;DHT22;14031;50.158;8.626;2023-08-12T03:42:51;21.30;99.90
16174;DHT22;14031;50.158;8.626;2023-08-12T03:45:18;21.20;99.90
16174;DHT22;14031;50.158;8.626;2023-08-12T03:47:44;21.20;99.90
16174;DHT22;14031;50.158;8.626;2023-08-12T03:50:11;21.20;99.90
16174;DHT22;14031;50.158;8.626;2023-08-12T03:52:38;21.10;99.90
16174;DHT22;14031;50.158;8.626;2023-08-12T03:55:06;21.10;99.90
16174;DHT22;14031;50.158;8.626;2023-08-12T03:57:34;21.10;99.90
16174;DHT22;14031;50.158;8.626;2023-08-12T04:00:01;21.10;99.90
16174;DHT22;14031;50.158;8.626;2023-08-12T04:02:28;21.10;99.90
16174;DHT22;14031;50.158;8.626;2023-08-12T04:04:55;21.10;99.90
16174;DHT22;14031;50.158;8.626;2023-08-12T04:07:22;21.10;99.90
16174;DHT22;14031;50.158;8.626;2023-08-12T04:09:49;21.10;99.90
16174;DHT22;14031;50.158;8.626;2023-08-12T04:12:16;21.10;99.90
16174;DHT22;14031;50.158;8.626;2023-08-12T04:14:44;21.10;99.90
16174;DHT22;14031;50.158;8.626;2023-08-12T04:17:14;21.10;99.90
16174;DHT22;14031;50.158;8.626;2023-08-12T04:19:40;21.10;99.90
16174;DHT22;14031;50.158;8.626;2023-08-12T04:22:07;21.10;99.90
16174;DHT22;14031;50.158;8.626;2023-08-12T04:24:34;21.10;99.90
16174;DHT22;14031;50.158;8.626;2023-08-12T04:27:01;21.10;99.90
16174;DHT22;14031;50.158;8.626;2023-08-12T04:29:27;21.10;99.90
16174;DHT22;14031;50.158;8.626;2023-08-12T04:31:56;21.10;99.90
16174;DHT22;14031;50.158;8.626;2023-08-12T04:34:24;21.00;99.90
16174;DHT22;14031;50.158;8.626;2023-08-12T04:36:50;21.00;99.90
16174;DHT22;14031;50.158;8.626;2023-08-12T04:39:20;21.00;99.90
16174;DHT22;14031;50.158;8.626;2023-08-12T04:41:48;21.00;99.90
16174;DHT22;14031;50.158;8.626;2023-08-12T04:44:14;20.90;99.90
16174;DHT22;14031;50.158;8.626;2023-08-12T04:46:41;20.90;99.90
16174;DHT22;14031;50.158;8.626;2023-08-12T04:49:09;21.00;99.90
16174;DHT22;14031;50.158;8.626;2023-08-12T04:51:36;21.00;99.90
16174;DHT22;14031;50.158;8.626;2023-08-12T04:54:04;21.00;99.90
16174;DHT22;14031;50.158;8.626;2023-08-12T04:56:31;21.10;99.90
16174;DHT22;14031;50.158;8.626;2023-08-12T04:58:58;20.90;99.90
16174;DHT22;14031;50.158;8.626;2023-08-12T05:01:24;21.10;99.90
16174;DHT22;14031;50.158;8.626;2023-08-12T05:03:51;21.10;99.90
16174;DHT22;14031;50.158;8.626;2023-08-12T05:06:19;21.20;99.90
16174;DHT22;14031;50.158;8.626;2023-08-12T05:08:46;21.30;99.90
16174;DHT22;14031;50.158;8.626;2023-08-12T05:11:13;21.20;99.90
16174;DHT22;14031;50.158;8.626;2023-08-12T05:13:40;21.20;99.90
16174;DHT22;14031;50.158;8.626;2023-08-12T05:16:08;21.30;99.90
16174;DHT22;14031;50.158;8.626;2023-08-12T05:18:35;21.30;99.90
16174;DHT22;14031;50.158;8.626;2023-08-12T05:21:02;21.30;99.90
16174;DHT22;14031;50.158;8.626;2023-08-12T05:23:30;21.40;99.90
16174;DHT22;14031;50.158;8.626;2023-08-12T05:25:57;21.40;99.90
16174;DHT22;14031;50.158;8.626;2023-08-12T05:28:24;21.40;99.90
16174;DHT22;14031;50.158;8.626;2023-08-12T05:30:50;21.50;99.90
16174;DHT22;14031;50.158;8.626;2023-08-12T05:33:20;21.50;99.90
16174;DHT22;14031;50.158;8.626;2023-08-12T05:35:47;21.50;99.90
16174;DHT22;14031;50.158;8.626;2023-08-12T05:38:14;21.50;99.90
16174;DHT22;14031;50.158;8.626;2023-08-12T05:40:42;21.50;99.90
16174;DHT22;14031;50.158;8.626;2023-08-12T05:43:09;21.40;99.90
16174;DHT22;14031;50.158;8.626;2023-08-12T05:45:36;21.50;99.90
16174;DHT22;14031;50.158;8.626;2023-08-12T05:48:03;21.50;99.90
16174;DHT22;14031;50.158;8.626;2023-08-12T05:50:30;21.60;99.90
16174;DHT22;14031;50.158;8.626;2023-08-12T05:52:57;21.60;99.90
16174;DHT22;14031;50.158;8.626;2023-08-12T05:55:23;21.60;99.90
16174;DHT22;14031;50.158;8.626;2023-08-12T05:57:52;21.60;99.90
16174;DHT22;14031;50.158;8.626;2023-08-12T06:00:18;21.50;99.90
16174;DHT22;14031;50.158;8.626;2023-08-12T06:02:45;21.40;99.90
16174;DHT22;14031;50.158;8.626;2023-08-12T06:05:12;21.60;99.90
16174;DHT22;14031;50.158;8.626;2023-08-12T06:07:39;21.50;99.90
16174;DHT22;14031;50.158;8.626;2023-08-12T06:10:06;21.70;99.90
16174;DHT22;14031;50.158;8.626;2023-08-12T06:12:33;21.70;99.90
16174;DHT22;14031;50.158;8.626;2023-08-12T06:15:01;21.80;99.90
16174;DHT22;14031;50.158;8.626;2023-08-12T06:17:28;21.90;99.90
16174;DHT22;14031;50.158;8.626;2023-08-12T06:19:55;21.80;99.90
16174;DHT22;14031;50.158;8.626;2023-08-12T06:22:22;22.00;99.90
16174;DHT22;14031;50.158;8.626;2023-08-12T06:24:48;22.10;99.90
16174;DHT22;14031;50.158;8.626;2023-08-12T06:27:15;22.00;99.90
16174;DHT22;14031;50.158;8.626;2023-08-12T06:29:42;22.10;99.90
16174;DHT22;14031;50.158;8.626;2023-08-12T06:32:10;22.10;99.90
16174;DHT22;14031;50.158;8.626;2023-08-12T06:34:38;22.10;99.90
16174;DHT22;14031;50.158;8.626;2023-08-12T06:37:05;22.20;99.90
16174;DHT22;14031;50.158;8.626;2023-08-12T06:39:31;22.30;99.90
16174;DHT22;14031;50.158;8.626;2023-08-12T06:41:58;22.30;99.90
16174;DHT22;14031;50.158;8.626;2023-08-12T06:44:25;22.40;99.90
16174;DHT22;14031;50.158;8.626;2023-08-12T06:46:52;22.40;99.90
16174;DHT22;14031;50.158;8.626;2023-08-12T06:49:20;22.50;99.90
16174;DHT22;14031;50.158;8.626;2023-08-12T06:51:47;22.50;99.90
16174;DHT22;14031;50.158;8.626;2023-08-12T06:54:14;22.50;99.90
16174;DHT22;14031;50.158;8.626;2023-08-12T06:56:40;22.60;99.90
16174;DHT22;14031;50.158;8.626;2023-08-12T06:59:07;22.60;99.90
16174;DHT22;14031;50.158;8.626;2023-08-12T07:01:36;22.70;99.90
16174;DHT22;14031;50.158;8.626;2023-08-12T07:04:03;22.80;99.90
16174;DHT22;14031;50.158;8.626;2023-08-12T07:06:31;22.80;99.90
16174;DHT22;14031;50.158;8.626;2023-08-12T07:08:58;22.80;99.90
16174;DHT22;14031;50.158;8.626;2023-08-12T07:11:25;22.90;99.90
16174;DHT22;14031;50.158;8.626;2023-08-12T07:13:51;23.00;99.90
16174;DHT22;14031;50.158;8.626;2023-08-12T07:16:18;23.00;99.90
16174;DHT22;14031;50.158;8.626;2023-08-12T07:18:45;23.10;99.90
16174;DHT22;14031;50.158;8.626;2023-08-12T07:21:12;23.10;99.90
16174;DHT22;14031;50.158;8.626;2023-08-12T07:23:40;23.30;99.90
16174;DHT22;14031;50.158;8.626;2023-08-12T07:26:07;23.40;99.90
16174;DHT22;14031;50.158;8.626;2023-08-12T07:28:34;23.60;99.90
16174;DHT22;14031;50.158;8.626;2023-08-12T07:31:01;23.70;99.90
16174;DHT22;14031;50.158;8.626;2023-08-12T07:33:28;23.70;99.90
16174;DHT22;14031;50.158;8.626;2023-08-12T07:35:55;23.80;99.90
16174;DHT22;14031;50.158;8.626;2023-08-12T07:38:22;23.90;99.90
16174;DHT22;14031;50.158;8.626;2023-08-12T07:40:50;24.00;99.90
16174;DHT22;14031;50.158;8.626;2023-08-12T07:43:17;24.10;99.90
16174;DHT22;14031;50.158;8.626;2023-08-12T07:45:43;24.10;99.90
16174;DHT22;14031;50.158;8.626;2023-08-12T07:48:10;24.10;99.90
16174;DHT22;14031;50.158;8.626;2023-08-12T07:50:37;24.20;99.90
16174;DHT22;14031;50.158;8.626;2023-08-12T07:53:04;24.30;99.90
16174;DHT22;14031;50.158;8.626;2023-08-12T07:55:30;24.30;99.90
16174;DHT22;14031;50.158;8.626;2023-08-12T07:57:59;24.40;99.90
16174;DHT22;14031;50.158;8.626;2023-08-12T08:00:25;24.60;99.90
16174;DHT22;14031;50.158;8.626;2023-08-12T08:02:52;24.80;99.90
16174;DHT22;14031;50.158;8.626;2023-08-12T08:05:19;25.00;99.90
16174;DHT22;14031;50.158;8.626;2023-08-12T08:07:46;25.10;99.90
16174;DHT22;14031;50.158;8.626;2023-08-12T08:10:13;25.40;99.90
16174;DHT22;14031;50.158;8.626;2023-08-12T08:12:42;25.50;99.90
16174;DHT22;14031;50.158;8.626;2023-08-12T08:15:10;25.70;99.90
16174;DHT22;14031;50.158;8.626;2023-08-12T08:17:37;25.60;99.90
16174;DHT22;14031;50.158;8.626;2023-08-12T08:20:05;25.40;99.90
16174;DHT22;14031;50.158;8.626;2023-08-12T08:22:32;25.30;99.90
16174;DHT22;14031;50.158;8.626;2023-08-12T08:24:59;25.20;99.90
16174;DHT22;14031;50.158;8.626;2023-08-12T08:27:26;25.10;99.90
16174;DHT22;14031;50.158;8.626;2023-08-12T08:29:53;25.10;99.90
16174;DHT22;14031;50.158;8.626;2023-08-12T08:32:21;25.10;99.90
16174;DHT22;14031;50.158;8.626;2023-08-12T08:34:48;25.10;99.90
16174;DHT22;14031;50.158;8.626;2023-08-12T08:37:15;25.10;99.90
16174;DHT22;14031;50.158;8.626;2023-08-12T08:39:41;25.20;99.90
16174;DHT22;14031;50.158;8.626;2023-08-12T08:42:10;25.20;99.90
16174;DHT22;14031;50.158;8.626;2023-08-12T08:44:40;25.30;99.90
16174;DHT22;14031;50.158;8.626;2023-08-12T08:47:08;25.40;99.90
16174;DHT22;14031;50.158;8.626;2023-08-12T08:49:37;25.40;99.90
16174;DHT22;14031;50.158;8.626;2023-08-12T08:52:04;25.20;99.90
16174;DHT22;14031;50.158;8.626;2023-08-12T08:54:31;25.30;99.90
16174;DHT22;14031;50.158;8.626;2023-08-12T08:56:57;25.30;99.90
16174;DHT22;14031;50.158;8.626;2023-08-12T08:59:24;25.40;99.90
16174;DHT22;14031;50.158;8.626;2023-08-12T09:01:51;25.50;99.90
16174;DHT22;14031;50.158;8.626;2023-08-12T09:04:21;25.70;99.90
16174;DHT22;14031;50.158;8.626;2023-08-12T09:06:51;25.90;99.90
16174;DHT22;14031;50.158;8.626;2023-08-12T09:09:20;26.00;99.90
16174;DHT22;14031;50.158;8.626;2023-08-12T09:11:47;26.10;99.90
16174;DHT22;14031;50.158;8.626;2023-08-12T09:14:15;26.20;99.90
16174;DHT22;14031;50.158;8.626;2023-08-12T09:16:41;26.10;99.90
16174;DHT22;14031;50.158;8.626;2023-08-12T09:19:09;25.90;99.90
16174;DHT22;14031;50.158;8.626;2023-08-12T09:21:36;25.80;99.90
16174;DHT22;14031;50.158;8.626;2023-08-12T09:24:05;25.70;99.90
16174;DHT22;14031;50.158;8.626;2023-08-12T09:26:32;25.70;99.90
16174;DHT22;14031;50.158;8.626;2023-08-12T09:29:00;25.70;99.90
16174;DHT22;14031;50.158;8.626;2023-08-12T09:31:28;25.60;99.90
16174;DHT22;14031;50.158;8.626;2023-08-12T09:33:57;25.50;99.90
16174;DHT22;14031;50.158;8.626;2023-08-12T09:36:27;25.50;99.90
16174;DHT22;14031;50.158;8.626;2023-08-12T09:38:55;25.60;99.90
16174;DHT22;14031;50.158;8.626;2023-08-12T09:41:24;25.60;99.90
16174;DHT22;14031;50.158;8.626;2023-08-12T09:43:51;25.70;99.90
16174;DHT22;14031;50.158;8.626;2023-08-12T09:46:21;25.80;99.90
16174;DHT22;14031;50.158;8.626;2023-08-12T09:48:49;26.00;99.90
16174;DHT22;14031;50.158;8.626;2023-08-12T09:51:16;26.10;99.90
16174;DHT22;14031;50.158;8.626;2023-08-12T09:53:43;26.20;99.90
16174;DHT22;14031;50.158;8.626;2023-08-12T09:56:11;26.30;99.90
16174;DHT22;14031;50.158;8.626;2023-08-12T09:58:40;26.40;99.90
16174;DHT22;14031;50.158;8.626;2023-08-12T10:01:10;26.50;99.90
16174;DHT22;14031;50.158;8.626;2023-08-12T10:03:40;26.70;99.90
16174;DHT22;14031;50.158;8.626;2023-08-12T10:06:08;27.00;99.90
16174;DHT22;14031;50.158;8.626;2023-08-12T10:08:35;27.20;99.90
16174;DHT22;14031;50.158;8.626;2023-08-12T10:11:02;27.30;99.90
16174;DHT22;14031;50.158;8.626;2023-08-12T10:13:29;27.40;99.90
16174;DHT22;14031;50.158;8.626;2023-08-12T10:15:58;27.40;99.90
16174;DHT22;14031;50.158;8.626;2023-08-12T10:18:26;27.30;99.90
16174;DHT22;14031;50.158;8.626;2023-08-12T10:20:57;27.20;99.90
16174;DHT22;14031;50.158;8.626;2023-08-12T10:23:24;27.00;99.90
16174;DHT22;14031;50.158;8.626;2023-08-12T10:25:54;26.80;99.90
16174;DHT22;14031;50.158;8.626;2023-08-12T10:28:21;26.60;99.90
16174;DHT22;14031;50.158;8.626;2023-08-12T10:30:49;26.30;99.90
16174;DHT22;14031;50.158;8.626;2023-08-12T10:33:17;26.00;99.90
16174;DHT22;14031;50.158;8.626;2023-08-12T10:35:45;25.70;99.90
16174;DHT22;14031;50.158;8.626;2023-08-12T10:38:17;25.50;99.90
16174;DHT22;14031;50.158;8.626;2023-08-12T10:40:44;25.20;99.90
16174;DHT22;14031;50.158;8.626;2023-08-12T10:43:12;25.00;99.90
16174;DHT22;14031;50.158;8.626;2023-08-12T10:45:48;24.80;99.90
16174;DHT22;14031;50.158;8.626;2023-08-12T10:48:22;24.70;99.90
16174;DHT22;14031;50.158;8.626;2023-08-12T10:50:51;24.50;99.90
16174;DHT22;14031;50.158;8.626;2023-08-12T10:53:25;24.40;99.90
16174;DHT22;14031;50.158;8.626;2023-08-12T10:55:56;24.30;99.90
16174;DHT22;14031;50.158;8.626;2023-08-12T10:58:27;24.20;99.90
16174;DHT22;14031;50.158;8.626;2023-08-12T11:00:55;24.10;99.90
16174;DHT22;14031;50.158;8.626;2023-08-12T11:03:23;24.10;99.90
16174;DHT22;14031;50.158;8.626;2023-08-12T11:05:51;24.00;99.90
16174;DHT22;14031;50.158;8.626;2023-08-12T11:08:24;23.90;99.90
16174;DHT22;14031;50.158;8.626;2023-08-12T11:11:18;23.80;99.90
16174;DHT22;14031;50.158;8.626;2023-08-12T11:13:47;23.80;99.90
16174;DHT22;14031;50.158;8.626;2023-08-12T11:16:13;23.70;99.90
16174;DHT22;14031;50.158;8.626;2023-08-12T11:18:42;23.70;99.90
16174;DHT22;14031;50.158;8.626;2023-08-12T11:21:10;23.70;99.90
16174;DHT22;14031;50.158;8.626;2023-08-12T11:23:38;23.70;99.90
16174;DHT22;14031;50.158;8.626;2023-08-12T11:26:06;23.70;99.90
16174;DHT22;14031;50.158;8.626;2023-08-12T11:28:37;23.80;99.90
16174;DHT22;14031;50.158;8.626;2023-08-12T11:31:04;23.90;99.90
16174;DHT22;14031;50.158;8.626;2023-08-12T11:33:31;24.00;99.90
16174;DHT22;14031;50.158;8.626;2023-08-12T11:35:59;24.10;99.90
16174;DHT22;14031;50.158;8.626;2023-08-12T11:38:27;24.20;99.90
16174;DHT22;14031;50.158;8.626;2023-08-12T11:40:53;24.30;99.90
16174;DHT22;14031;50.158;8.626;2023-08-12T11:43:21;24.30;99.90
16174;DHT22;14031;50.158;8.626;2023-08-12T11:45:48;24.50;99.90
16174;DHT22;14031;50.158;8.626;2023-08-12T11:48:15;24.50;99.90
16174;DHT22;14031;50.158;8.626;2023-08-12T11:50:42;24.60;99.90
16174;DHT22;14031;50.158;8.626;2023-08-12T11:53:10;24.70;99.90
16174;DHT22;14031;50.158;8.626;2023-08-12T11:55:37;24.80;99.90
16174;DHT22;14031;50.158;8.626;2023-08-12T11:58:05;24.90;99.90
16174;DHT22;14031;50.158;8.626;2023-08-12T12:00:33;25.00;99.90
16174;DHT22;14031;50.158;8.626;2023-08-12T12:03:00;25.00;99.90
16174;DHT22;14031;50.158;8.626;2023-08-12T12:05:28;25.10;99.90
16174;DHT22;14031;50.158;8.626;2023-08-12T12:07:55;25.20;99.90
16174;DHT22;14031;50.158;8.626;2023-08-12T12:10:28;25.20;99.90
16174;DHT22;14031;50.158;8.626;2023-08-12T12:12:55;25.30;99.90
16174;DHT22;14031;50.158;8.626;2023-08-12T12:15:22;25.40;99.90
16174;DHT22;14031;50.158;8.626;2023-08-12T12:17:49;25.40;99.90
16174;DHT22;14031;50.158;8.626;2023-08-12T12:20:16;25.40;99.90
16174;DHT22;14031;50.158;8.626;2023-08-12T12:22:45;25.40;99.90
16174;DHT22;14031;50.158;8.626;2023-08-12T12:25:13;25.30;99.90
16174;DHT22;14031;50.158;8.626;2023-08-12T12:27:42;25.20;99.90
16174;DHT22;14031;50.158;8.626;2023-08-12T12:30:12;25.20;99.90
16174;DHT22;14031;50.158;8.626;2023-08-12T12:32:39;25.20;99.90
16174;DHT22;14031;50.158;8.626;2023-08-12T12:35:07;25.20;99.90
16174;DHT22;14031;50.158;8.626;2023-08-12T12:37:34;25.20;99.90
16174;DHT22;14031;50.158;8.626;2023-08-12T12:40:00;25.30;99.90
16174;DHT22;14031;50.158;8.626;2023-08-12T12:42:28;25.40;99.90
16174;DHT22;14031;50.158;8.626;2023-08-12T12:44:56;25.50;99.90
16174;DHT22;14031;50.158;8.626;2023-08-12T12:47:24;25.70;99.90
16174;DHT22;14031;50.158;8.626;2023-08-12T12:49:51;25.90;99.90
16174;DHT22;14031;50.158;8.626;2023-08-12T12:52:18;26.20;99.90
16174;DHT22;14031;50.158;8.626;2023-08-12T12:54:45;26.40;99.90
16174;DHT22;14031;50.158;8.626;2023-08-12T12:57:12;26.50;99.90
16174;DHT22;14031;50.158;8.626;2023-08-12T12:59:38;26.60;99.90
16174;DHT22;14031;50.158;8.626;2023-08-12T13:02:06;26.60;99.90
16174;DHT22;14031;50.158;8.626;2023-08-12T13:04:33;26.70;99.90
16174;DHT22;14031;50.158;8.626;2023-08-12T13:07:00;26.70;99.90
16174;DHT22;14031;50.158;8.626;2023-08-12T13:09:27;26.80;99.90
16174;DHT22;14031;50.158;8.626;2023-08-12T13:11:54;27.00;99.90
16174;DHT22;14031;50.158;8.626;2023-08-12T13:14:22;27.20;99.90
16174;DHT22;14031;50.158;8.626;2023-08-12T13:16:49;27.50;99.90
16174;DHT22;14031;50.158;8.626;2023-08-12T13:19:17;27.90;99.90
16174;DHT22;14031;50.158;8.626;2023-08-12T13:21:44;28.30;99.90
16174;DHT22;14031;50.158;8.626;2023-08-12T13:24:11;28.50;99.90
16174;DHT22;14031;50.158;8.626;2023-08-12T13:26:38;28.80;99.90
16174;DHT22;14031;50.158;8.626;2023-08-12T13:29:04;28.90;99.90
16174;DHT22;14031;50.158;8.626;2023-08-12T13:31:31;29.20;99.90
16174;DHT22;14031;50.158;8.626;2023-08-12T13:33:58;29.50;99.90
16174;DHT22;14031;50.158;8.626;2023-08-12T13:36:26;29.80;99.90
16174;DHT22;14031;50.158;8.626;2023-08-12T13:38:53;30.20;99.90
16174;DHT22;14031;50.158;8.626;2023-08-12T13:41:20;30.40;99.90
16174;DHT22;14031;50.158;8.626;2023-08-12T13:43:47;30.50;99.90
16174;DHT22;14031;50.158;8.626;2023-08-12T13:46:15;30.50;99.90
16174;DHT22;14031;50.158;8.626;2023-08-12T13:48:42;30.50;99.90
16174;DHT22;14031;50.158;8.626;2023-08-12T13:51:09;30.70;99.90
16174;DHT22;14031;50.158;8.626;2023-08-12T13:53:37;31.10;99.90
16174;DHT22;14031;50.158;8.626;2023-08-12T13:56:04;31.30;99.90
16174;DHT22;14031;50.158;8.626;2023-08-12T13:58:31;31.50;99.90
16174;DHT22;14031;50.158;8.626;2023-08-12T14:00:58;31.30;99.90
16174;DHT22;14031;50.158;8.626;2023-08-12T14:03:24;31.00;99.90
16174;DHT22;14031;50.158;8.626;2023-08-12T14:05:51;30.70;99.90
16174;DHT22;14031;50.158;8.626;2023-08-12T14:08:18;30.40;99.90
16174;DHT22;14031;50.158;8.626;2023-08-12T14:10:46;30.10;99.90
16174;DHT22;14031;50.158;8.626;2023-08-12T14:13:15;29.90;99.90
16174;DHT22;14031;50.158;8.626;2023-08-12T14:15:42;29.90;99.90
16174;DHT22;14031;50.158;8.626;2023-08-12T14:18:09;29.90;99.90
16174;DHT22;14031;50.158;8.626;2023-08-12T14:20:35;29.90;99.90
16174;DHT22;14031;50.158;8.626;2023-08-12T14:23:02;30.00;99.90
16174;DHT22;14031;50.158;8.626;2023-08-12T14:25:29;30.10;99.90
16174;DHT22;14031;50.158;8.626;2023-08-12T14:27:57;30.50;99.90
16174;DHT22;14031;50.158;8.626;2023-08-12T14:30:25;31.10;99.90
16174;DHT22;14031;50.158;8.626;2023-08-12T14:32:52;31.40;99.90
16174;DHT22;14031;50.158;8.626;2023-08-12T14:35:19;31.20;99.90
16174;DHT22;14031;50.158;8.626;2023-08-12T14:37:45;30.90;99.90
16174;DHT22;14031;50.158;8.626;2023-08-12T14:40:12;30.70;99.90
16174;DHT22;14031;50.158;8.626;2023-08-12T14:42:39;30.50;99.90
16174;DHT22;14031;50.158;8.626;2023-08-12T14:45:09;30.40;99.90
16174;DHT22;14031;50.158;8.626;2023-08-12T14:47:36;30.50;99.90
16174;DHT22;14031;50.158;8.626;2023-08-12T14:50:03;31.20;99.90
16174;DHT22;14031;50.158;8.626;2023-08-12T14:52:30;32.30;99.90
16174;DHT22;14031;50.158;8.626;2023-08-12T14:54:56;32.90;99.90
16174;DHT22;14031;50.158;8.626;2023-08-12T14:57:23;32.90;99.90
16174;DHT22;14031;50.158;8.626;2023-08-12T14:59:50;32.50;99.90
16174;DHT22;14031;50.158;8.626;2023-08-12T15:02:20;32.10;99.90
16174;DHT22;14031;50.158;8.626;2023-08-12T15:04:47;31.50;99.90
16174;DHT22;14031;50.158;8.626;2023-08-12T15:07:14;31.30;99.90
16174;DHT22;14031;50.158;8.626;2023-08-12T15:09:41;31.20;99.90
16174;DHT22;14031;50.158;8.626;2023-08-12T15:12:08;31.00;99.90
16174;DHT22;14031;50.158;8.626;2023-08-12T15:14:35;30.70;99.90
16174;DHT22;14031;50.158;8.626;2023-08-12T15:17:02;30.40;99.90
16174;DHT22;14031;50.158;8.626;2023-08-12T15:19:30;30.10;99.90
16174;DHT22;14031;50.158;8.626;2023-08-12T15:21:58;29.70;99.90
16174;DHT22;14031;50.158;8.626;2023-08-12T15:24:25;29.40;99.90
16174;DHT22;14031;50.158;8.626;2023-08-12T15:26:52;29.10;99.90
16174;DHT22;14031;50.158;8.626;2023-08-12T15:29:18;28.80;99.90
16174;DHT22;14031;50.158;8.626;2023-08-12T15:31:45;28.60;99.90